sensor_id;sensor_type;location;lat;lon;timestamp;P1;durP1;ratioP1;P2;durP2;ratioP2
31043;SDS011;17710;52.520;13.352;2022-08-01T00:01:23;5.65;;;2.60;;
31043;SDS011;17710;52.520;13.352;2022-08-01T00:03:50;3.67;;;2.75;;
31043;SDS011;17710;52.520;13.352;2022-08-01T00:06:17;3.58;;;3.00;;
31043;SDS011;17710;52.520;13.352;2022-08-01T00:08:43;5.82;;;2.88;;
31043;SDS011;17710;52.520;13.352;2022-08-01T00:11:10;4.30;;;2.35;;
31043;SDS011;17710;52.520;13.352;2022-08-01T00:13:38;5.38;;;2.75;;
31043;SDS011;17710;52.520;13.352;2022-08-01T00:16:05;4.85;;;2.72;;
31043;SDS011;17710;52.520;13.352;2022-08-01T00:18:31;3.95;;;2.60;;
31043;SDS011;17710;52.520;13.352;2022-08-01T00:20:57;2.75;;;2.40;;
31043;SDS011;17710;52.520;13.352;2022-08-01T00:23:24;4.40;;;2.80;;
31043;SDS011;17710;52.520;13.352;2022-08-01T00:25:50;4.53;;;3.00;;
31043;SDS011;17710;52.520;13.352;2022-08-01T00:28:16;3.42;;;2.30;;
31043;SDS011;17710;52.520;13.352;2022-08-01T00:30:44;4.70;;;3.13;;
31043;SDS011;17710;52.520;13.352;2022-08-01T00:33:10;3.03;;;2.83;;
31043;SDS011;17710;52.520;13.352;2022-08-01T00:35:37;3.38;;;2.67;;
31043;SDS011;17710;52.520;13.352;2022-08-01T00:38:03;4.28;;;2.88;;
31043;SDS011;17710;52.520;13.352;2022-08-01T00:40:29;4.32;;;2.95;;
31043;SDS011;17710;52.520;13.352;2022-08-01T00:42:56;4.00;;;3.13;;
31043;SDS011;17710;52.520;13.352;2022-08-01T00:45:22;5.80;;;3.28;;
31043;SDS011;17710;52.520;13.352;2022-08-01T00:47:50;6.85;;;2.72;;
31043;SDS011;17710;52.520;13.352;2022-08-01T00:50:16;3.65;;;3.10;;
31043;SDS011;17710;52.520;13.352;2022-08-01T00:52:43;3.35;;;2.88;;
31043;SDS011;17710;52.520;13.352;2022-08-01T00:55:10;4.30;;;2.90;;
31043;SDS011;17710;52.520;13.352;2022-08-01T00:57:38;4.80;;;3.20;;
31043;SDS011;17710;52.520;13.352;2022-08-01T01:00:06;3.92;;;2.83;;
31043;SDS011;17710;52.520;13.352;2022-08-01T01:02:33;3.15;;;2.80;;
31043;SDS011;17710;52.520;13.352;2022-08-01T01:05:01;4.72;;;2.67;;
31043;SDS011;17710;52.520;13.352;2022-08-01T01:07:29;8.13;;;3.50;;
31043;SDS011;17710;52.520;13.352;2022-08-01T01:10:03;3.90;;;2.78;;
31043;SDS011;17710;52.520;13.352;2022-08-01T01:12:36;3.60;;;2.67;;
31043;SDS011;17710;52.520;13.352;2022-08-01T01:15:11;4.45;;;2.58;;
31043;SDS011;17710;52.520;13.352;2022-08-01T01:17:44;4.13;;;3.17;;
31043;SDS011;17710;52.520;13.352;2022-08-01T01:20:15;3.17;;;2.85;;
31043;SDS011;17710;52.520;13.352;2022-08-01T01:22:50;3.55;;;3.20;;
31043;SDS011;17710;52.520;13.352;2022-08-01T01:25:30;6.63;;;3.13;;
31043;SDS011;17710;52.520;13.352;2022-08-01T01:28:08;5.30;;;2.80;;
31043;SDS011;17710;52.520;13.352;2022-08-01T01:30:40;4.43;;;2.92;;
31043;SDS011;17710;52.520;13.352;2022-08-01T01:33:09;4.82;;;2.40;;
31043;SDS011;17710;52.520;13.352;2022-08-01T01:35:38;4.40;;;2.65;;
31043;SDS011;17710;52.520;13.352;2022-08-01T01:38:12;4.22;;;2.92;;
31043;SDS011;17710;52.520;13.352;2022-08-01T01:40:43;3.80;;;2.83;;
31043;SDS011;17710;52.520;13.352;2022-08-01T01:43:11;3.88;;;2.88;;
31043;SDS011;17710;52.520;13.352;2022-08-01T01:45:41;4.03;;;3.10;;
31043;SDS011;17710;52.520;13.352;2022-08-01T01:48:11;4.85;;;2.92;;
31043;SDS011;17710;52.520;13.352;2022-08-01T01:50:39;6.40;;;2.72;;
31043;SDS011;17710;52.520;13.352;2022-08-01T01:53:08;5.45;;;2.95;;
31043;SDS011;17710;52.520;13.352;2022-08-01T01:55:36;3.05;;;2.70;;
31043;SDS011;17710;52.520;13.352;2022-08-01T01:58:05;4.53;;;2.90;;
31043;SDS011;17710;52.520;13.352;2022-08-01T02:00:33;3.22;;;2.92;;
31043;SDS011;17710;52.520;13.352;2022-08-01T02:03:03;5.53;;;3.00;;
31043;SDS011;17710;52.520;13.352;2022-08-01T02:05:33;5.07;;;2.80;;
31043;SDS011;17710;52.520;13.352;2022-08-01T02:08:01;4.95;;;3.38;;
31043;SDS011;17710;52.520;13.352;2022-08-01T02:10:29;3.75;;;3.38;;
31043;SDS011;17710;52.520;13.352;2022-08-01T02:12:58;4.60;;;2.85;;
31043;SDS011;17710;52.520;13.352;2022-08-01T02:15:28;2.88;;;2.67;;
31043;SDS011;17710;52.520;13.352;2022-08-01T02:17:57;5.95;;;2.90;;
31043;SDS011;17710;52.520;13.352;2022-08-01T02:20:26;4.82;;;3.15;;
31043;SDS011;17710;52.520;13.352;2022-08-01T02:22:57;3.75;;;2.78;;
31043;SDS011;17710;52.520;13.352;2022-08-01T02:25:31;4.05;;;3.00;;
31043;SDS011;17710;52.520;13.352;2022-08-01T02:28:03;3.78;;;3.05;;
31043;SDS011;17710;52.520;13.352;2022-08-01T02:30:33;3.65;;;2.83;;
31043;SDS011;17710;52.520;13.352;2022-08-01T02:33:03;4.90;;;2.90;;
31043;SDS011;17710;52.520;13.352;2022-08-01T02:35:33;9.35;;;3.25;;
31043;SDS011;17710;52.520;13.352;2022-08-01T02:38:03;4.03;;;2.92;;
31043;SDS011;17710;52.520;13.352;2022-08-01T02:40:33;3.50;;;3.17;;
31043;SDS011;17710;52.520;13.352;2022-08-01T02:43:03;3.00;;;2.80;;
31043;SDS011;17710;52.520;13.352;2022-08-01T02:45:31;4.65;;;3.03;;
31043;SDS011;17710;52.520;13.352;2022-08-01T02:48:02;3.53;;;2.88;;
31043;SDS011;17710;52.520;13.352;2022-08-01T02:50:33;3.58;;;2.97;;
31043;SDS011;17710;52.520;13.352;2022-08-01T02:53:01;5.65;;;3.63;;
31043;SDS011;17710;52.520;13.352;2022-08-01T02:55:29;4.53;;;3.33;;
31043;SDS011;17710;52.520;13.352;2022-08-01T02:57:58;4.53;;;3.53;;
31043;SDS011;17710;52.520;13.352;2022-08-01T03:00:26;3.33;;;2.78;;
31043;SDS011;17710;52.520;13.352;2022-08-01T03:02:55;5.38;;;3.40;;
31043;SDS011;17710;52.520;13.352;2022-08-01T03:05:23;2.85;;;2.65;;
31043;SDS011;17710;52.520;13.352;2022-08-01T03:07:53;4.20;;;3.20;;
31043;SDS011;17710;52.520;13.352;2022-08-01T03:10:21;3.55;;;3.25;;
31043;SDS011;17710;52.520;13.352;2022-08-01T03:12:50;7.82;;;3.40;;
31043;SDS011;17710;52.520;13.352;2022-08-01T03:15:17;4.20;;;3.50;;
31043;SDS011;17710;52.520;13.352;2022-08-01T03:17:45;5.05;;;3.75;;
31043;SDS011;17710;52.520;13.352;2022-08-01T03:20:14;4.20;;;3.10;;
31043;SDS011;17710;52.520;13.352;2022-08-01T03:22:43;5.25;;;3.58;;
31043;SDS011;17710;52.520;13.352;2022-08-01T03:25:12;5.78;;;4.10;;
31043;SDS011;17710;52.520;13.352;2022-08-01T03:27:41;4.18;;;3.30;;
31043;SDS011;17710;52.520;13.352;2022-08-01T03:30:10;4.20;;;3.58;;
31043;SDS011;17710;52.520;13.352;2022-08-01T03:32:37;4.43;;;3.25;;
31043;SDS011;17710;52.520;13.352;2022-08-01T03:35:04;4.00;;;3.35;;
31043;SDS011;17710;52.520;13.352;2022-08-01T03:37:32;4.50;;;3.70;;
31043;SDS011;17710;52.520;13.352;2022-08-01T03:40:04;5.28;;;3.55;;
31043;SDS011;17710;52.520;13.352;2022-08-01T03:42:37;4.47;;;2.88;;
31043;SDS011;17710;52.520;13.352;2022-08-01T03:45:08;8.23;;;3.25;;
31043;SDS011;17710;52.520;13.352;2022-08-01T03:47:37;5.93;;;3.20;;
31043;SDS011;17710;52.520;13.352;2022-08-01T03:50:08;3.53;;;3.03;;
31043;SDS011;17710;52.520;13.352;2022-08-01T03:52:38;5.03;;;3.45;;
31043;SDS011;17710;52.520;13.352;2022-08-01T03:55:07;6.40;;;3.13;;
31043;SDS011;17710;52.520;13.352;2022-08-01T03:57:38;4.05;;;3.38;;
31043;SDS011;17710;52.520;13.352;2022-08-01T04:00:06;4.85;;;3.55;;
31043;SDS011;17710;52.520;13.352;2022-08-01T04:02:33;3.38;;;3.08;;
31043;SDS011;17710;52.520;13.352;2022-08-01T04:05:00;4.75;;;3.60;;
31043;SDS011;17710;52.520;13.352;2022-08-01T04:07:29;5.20;;;3.80;;
31043;SDS011;17710;52.520;13.352;2022-08-01T04:09:56;7.20;;;4.78;;
31043;SDS011;17710;52.520;13.352;2022-08-01T04:12:23;5.65;;;4.72;;
31043;SDS011;17710;52.520;13.352;2022-08-01T04:14:51;11.32;;;5.22;;
31043;SDS011;17710;52.520;13.352;2022-08-01T04:17:17;11.45;;;7.15;;
31043;SDS011;17710;52.520;13.352;2022-08-01T04:19:44;9.60;;;6.90;;
31043;SDS011;17710;52.520;13.352;2022-08-01T04:22:11;12.07;;;7.47;;
31043;SDS011;17710;52.520;13.352;2022-08-01T04:24:40;11.23;;;7.38;;
31043;SDS011;17710;52.520;13.352;2022-08-01T04:27:09;11.70;;;7.60;;
31043;SDS011;17710;52.520;13.352;2022-08-01T04:29:39;9.25;;;6.50;;
31043;SDS011;17710;52.520;13.352;2022-08-01T04:32:11;9.65;;;6.18;;
31043;SDS011;17710;52.520;13.352;2022-08-01T04:34:40;11.00;;;6.60;;
31043;SDS011;17710;52.520;13.352;2022-08-01T04:37:09;7.78;;;5.78;;
31043;SDS011;17710;52.520;13.352;2022-08-01T04:39:37;9.60;;;6.32;;
31043;SDS011;17710;52.520;13.352;2022-08-01T04:42:07;9.02;;;6.15;;
31043;SDS011;17710;52.520;13.352;2022-08-01T04:44:34;9.27;;;5.97;;
31043;SDS011;17710;52.520;13.352;2022-08-01T04:47:01;7.65;;;6.43;;
31043;SDS011;17710;52.520;13.352;2022-08-01T04:49:31;7.43;;;6.38;;
31043;SDS011;17710;52.520;13.352;2022-08-01T04:51:58;7.57;;;6.50;;
31043;SDS011;17710;52.520;13.352;2022-08-01T04:54:25;9.52;;;6.70;;
31043;SDS011;17710;52.520;13.352;2022-08-01T04:56:52;10.82;;;7.65;;
31043;SDS011;17710;52.520;13.352;2022-08-01T04:59:20;11.35;;;8.02;;
31043;SDS011;17710;52.520;13.352;2022-08-01T05:02:05;10.32;;;7.57;;
31043;SDS011;17710;52.520;13.352;2022-08-01T05:04:34;9.70;;;7.88;;
31043;SDS011;17710;52.520;13.352;2022-08-01T05:07:01;10.48;;;8.35;;
31043;SDS011;17710;52.520;13.352;2022-08-01T05:09:28;15.77;;;7.95;;
31043;SDS011;17710;52.520;13.352;2022-08-01T05:11:55;9.70;;;7.63;;
31043;SDS011;17710;52.520;13.352;2022-08-01T05:14:23;8.70;;;7.15;;
31043;SDS011;17710;52.520;13.352;2022-08-01T05:16:50;8.95;;;7.47;;
31043;SDS011;17710;52.520;13.352;2022-08-01T05:19:16;10.18;;;7.47;;
31043;SDS011;17710;52.520;13.352;2022-08-01T05:21:44;10.52;;;7.60;;
31043;SDS011;17710;52.520;13.352;2022-08-01T05:24:10;12.55;;;7.15;;
31043;SDS011;17710;52.520;13.352;2022-08-01T05:26:37;9.07;;;6.88;;
31043;SDS011;17710;52.520;13.352;2022-08-01T05:29:04;8.48;;;6.35;;
31043;SDS011;17710;52.520;13.352;2022-08-01T05:31:30;11.73;;;7.60;;
31043;SDS011;17710;52.520;13.352;2022-08-01T05:33:59;15.20;;;7.18;;
31043;SDS011;17710;52.520;13.352;2022-08-01T05:36:25;7.45;;;6.07;;
31043;SDS011;17710;52.520;13.352;2022-08-01T05:38:53;9.32;;;6.85;;
31043;SDS011;17710;52.520;13.352;2022-08-01T05:41:19;16.70;;;6.90;;
31043;SDS011;17710;52.520;13.352;2022-08-01T05:43:46;7.82;;;6.13;;
31043;SDS011;17710;52.520;13.352;2022-08-01T05:46:12;6.90;;;5.28;;
31043;SDS011;17710;52.520;13.352;2022-08-01T05:48:39;8.30;;;5.60;;
31043;SDS011;17710;52.520;13.352;2022-08-01T05:51:05;7.10;;;6.30;;
31043;SDS011;17710;52.520;13.352;2022-08-01T05:53:31;6.20;;;5.60;;
31043;SDS011;17710;52.520;13.352;2022-08-01T05:56:00;7.88;;;5.85;;
31043;SDS011;17710;52.520;13.352;2022-08-01T05:58:27;5.82;;;5.18;;
31043;SDS011;17710;52.520;13.352;2022-08-01T06:00:53;9.30;;;5.78;;
31043;SDS011;17710;52.520;13.352;2022-08-01T06:03:20;9.63;;;5.32;;
31043;SDS011;17710;52.520;13.352;2022-08-01T06:05:46;6.35;;;5.22;;
31043;SDS011;17710;52.520;13.352;2022-08-01T06:08:12;5.55;;;5.00;;
31043;SDS011;17710;52.520;13.352;2022-08-01T06:10:39;7.78;;;5.60;;
31043;SDS011;17710;52.520;13.352;2022-08-01T06:13:07;7.50;;;5.57;;
31043;SDS011;17710;52.520;13.352;2022-08-01T06:15:33;8.35;;;5.30;;
31043;SDS011;17710;52.520;13.352;2022-08-01T06:18:00;8.75;;;5.40;;
31043;SDS011;17710;52.520;13.352;2022-08-01T06:20:26;5.75;;;5.15;;
31043;SDS011;17710;52.520;13.352;2022-08-01T06:22:53;4.88;;;4.47;;
31043;SDS011;17710;52.520;13.352;2022-08-01T06:25:19;5.13;;;3.95;;
31043;SDS011;17710;52.520;13.352;2022-08-01T06:27:46;6.80;;;3.85;;
31043;SDS011;17710;52.520;13.352;2022-08-01T06:30:14;6.13;;;3.65;;
31043;SDS011;17710;52.520;13.352;2022-08-01T06:32:40;3.35;;;3.05;;
31043;SDS011;17710;52.520;13.352;2022-08-01T06:35:07;7.13;;;3.10;;
31043;SDS011;17710;52.520;13.352;2022-08-01T06:37:34;3.38;;;2.67;;
31043;SDS011;17710;52.520;13.352;2022-08-01T06:40:01;4.50;;;2.58;;
31043;SDS011;17710;52.520;13.352;2022-08-01T06:42:28;2.80;;;2.60;;
31043;SDS011;17710;52.520;13.352;2022-08-01T06:44:56;4.45;;;2.40;;
31043;SDS011;17710;52.520;13.352;2022-08-01T06:47:24;2.40;;;2.20;;
31043;SDS011;17710;52.520;13.352;2022-08-01T06:49:50;3.55;;;2.40;;
31043;SDS011;17710;52.520;13.352;2022-08-01T06:52:17;3.35;;;2.17;;
31043;SDS011;17710;52.520;13.352;2022-08-01T06:54:43;8.68;;;2.25;;
31043;SDS011;17710;52.520;13.352;2022-08-01T06:57:09;4.53;;;2.08;;
31043;SDS011;17710;52.520;13.352;2022-08-01T06:59:36;4.25;;;1.85;;
31043;SDS011;17710;52.520;13.352;2022-08-01T07:02:02;2.38;;;1.92;;
31043;SDS011;17710;52.520;13.352;2022-08-01T07:04:30;2.92;;;1.83;;
31043;SDS011;17710;52.520;13.352;2022-08-01T07:06:57;2.28;;;1.80;;
31043;SDS011;17710;52.520;13.352;2022-08-01T07:09:23;1.98;;;1.75;;
31043;SDS011;17710;52.520;13.352;2022-08-01T07:11:50;3.50;;;1.75;;
31043;SDS011;17710;52.520;13.352;2022-08-01T07:14:17;3.00;;;2.30;;
31043;SDS011;17710;52.520;13.352;2022-08-01T07:16:44;8.40;;;3.08;;
31043;SDS011;17710;52.520;13.352;2022-08-01T07:19:11;2.30;;;2.10;;
31043;SDS011;17710;52.520;13.352;2022-08-01T07:21:39;3.90;;;2.85;;
31043;SDS011;17710;52.520;13.352;2022-08-01T07:24:06;4.30;;;2.05;;
31043;SDS011;17710;52.520;13.352;2022-08-01T07:26:33;5.43;;;2.42;;
31043;SDS011;17710;52.520;13.352;2022-08-01T07:29:00;8.95;;;2.50;;
31043;SDS011;17710;52.520;13.352;2022-08-01T07:31:27;4.75;;;2.20;;
31043;SDS011;17710;52.520;13.352;2022-08-01T07:33:54;4.03;;;2.17;;
31043;SDS011;17710;52.520;13.352;2022-08-01T07:36:20;2.80;;;2.60;;
31043;SDS011;17710;52.520;13.352;2022-08-01T07:38:48;3.63;;;2.22;;
31043;SDS011;17710;52.520;13.352;2022-08-01T07:41:14;2.40;;;2.20;;
31043;SDS011;17710;52.520;13.352;2022-08-01T07:43:41;3.25;;;2.40;;
31043;SDS011;17710;52.520;13.352;2022-08-01T07:46:08;2.78;;;2.58;;
31043;SDS011;17710;52.520;13.352;2022-08-01T07:48:34;4.28;;;2.28;;
31043;SDS011;17710;52.520;13.352;2022-08-01T07:51:01;2.67;;;2.47;;
31043;SDS011;17710;52.520;13.352;2022-08-01T07:53:27;2.53;;;2.33;;
31043;SDS011;17710;52.520;13.352;2022-08-01T07:55:55;2.88;;;2.38;;
31043;SDS011;17710;52.520;13.352;2022-08-01T07:58:21;3.47;;;2.85;;
31043;SDS011;17710;52.520;13.352;2022-08-01T08:00:48;3.22;;;2.95;;
31043;SDS011;17710;52.520;13.352;2022-08-01T08:03:14;4.00;;;3.13;;
31043;SDS011;17710;52.520;13.352;2022-08-01T08:05:40;3.60;;;3.30;;
31043;SDS011;17710;52.520;13.352;2022-08-01T08:08:07;3.65;;;2.72;;
31043;SDS011;17710;52.520;13.352;2022-08-01T08:10:35;3.63;;;3.33;;
31043;SDS011;17710;52.520;13.352;2022-08-01T08:13:05;4.07;;;3.65;;
31043;SDS011;17710;52.520;13.352;2022-08-01T08:15:31;4.20;;;2.90;;
31043;SDS011;17710;52.520;13.352;2022-08-01T08:17:58;4.07;;;3.17;;
31043;SDS011;17710;52.520;13.352;2022-08-01T08:20:25;7.57;;;2.90;;
31043;SDS011;17710;52.520;13.352;2022-08-01T08:22:52;3.88;;;2.47;;
31043;SDS011;17710;52.520;13.352;2022-08-01T08:25:19;3.33;;;3.03;;
31043;SDS011;17710;52.520;13.352;2022-08-01T08:27:46;3.92;;;3.15;;
31043;SDS011;17710;52.520;13.352;2022-08-01T08:30:14;3.45;;;2.80;;
31043;SDS011;17710;52.520;13.352;2022-08-01T08:32:41;4.32;;;3.00;;
31043;SDS011;17710;52.520;13.352;2022-08-01T08:35:08;3.55;;;2.95;;
31043;SDS011;17710;52.520;13.352;2022-08-01T08:37:34;6.78;;;3.83;;
31043;SDS011;17710;52.520;13.352;2022-08-01T08:40:02;4.57;;;3.72;;
31043;SDS011;17710;52.520;13.352;2022-08-01T08:42:32;3.47;;;2.80;;
31043;SDS011;17710;52.520;13.352;2022-08-01T08:45:00;3.00;;;2.67;;
31043;SDS011;17710;52.520;13.352;2022-08-01T08:47:27;5.15;;;2.45;;
31043;SDS011;17710;52.520;13.352;2022-08-01T08:49:58;3.38;;;2.53;;
31043;SDS011;17710;52.520;13.352;2022-08-01T08:52:27;5.45;;;3.35;;
31043;SDS011;17710;52.520;13.352;2022-08-01T08:54:54;3.05;;;2.22;;
31043;SDS011;17710;52.520;13.352;2022-08-01T08:57:22;2.15;;;1.95;;
31043;SDS011;17710;52.520;13.352;2022-08-01T08:59:49;2.25;;;1.90;;
31043;SDS011;17710;52.520;13.352;2022-08-01T09:02:17;1.85;;;1.75;;
31043;SDS011;17710;52.520;13.352;2022-08-01T09:04:46;1.27;;;1.00;;
31043;SDS011;17710;52.520;13.352;2022-08-01T09:07:13;4.70;;;1.10;;
31043;SDS011;17710;52.520;13.352;2022-08-01T09:09:40;3.55;;;1.30;;
31043;SDS011;17710;52.520;13.352;2022-08-01T09:12:06;1.83;;;1.00;;
31043;SDS011;17710;52.520;13.352;2022-08-01T09:14:33;1.30;;;1.10;;
31043;SDS011;17710;52.520;13.352;2022-08-01T09:17:02;1.90;;;0.85;;
31043;SDS011;17710;52.520;13.352;2022-08-01T09:19:35;2.22;;;1.00;;
31043;SDS011;17710;52.520;13.352;2022-08-01T09:22:05;1.23;;;0.90;;
31043;SDS011;17710;52.520;13.352;2022-08-01T09:24:34;2.55;;;1.20;;
31043;SDS011;17710;52.520;13.352;2022-08-01T09:27:01;2.55;;;1.02;;
31043;SDS011;17710;52.520;13.352;2022-08-01T09:29:41;0.88;;;0.80;;
31043;SDS011;17710;52.520;13.352;2022-08-01T09:32:09;1.20;;;0.90;;
31043;SDS011;17710;52.520;13.352;2022-08-01T09:34:36;3.33;;;1.13;;
31043;SDS011;17710;52.520;13.352;2022-08-01T09:37:02;1.85;;;1.00;;
31043;SDS011;17710;52.520;13.352;2022-08-01T09:39:33;2.10;;;1.10;;
31043;SDS011;17710;52.520;13.352;2022-08-01T09:42:18;3.50;;;1.20;;
31043;SDS011;17710;52.520;13.352;2022-08-01T09:44:46;3.10;;;1.80;;
31043;SDS011;17710;52.520;13.352;2022-08-01T09:47:13;4.40;;;1.30;;
31043;SDS011;17710;52.520;13.352;2022-08-01T09:49:41;1.77;;;1.48;;
31043;SDS011;17710;52.520;13.352;2022-08-01T09:52:10;1.50;;;1.40;;
31043;SDS011;17710;52.520;13.352;2022-08-01T09:54:39;3.22;;;1.67;;
31043;SDS011;17710;52.520;13.352;2022-08-01T09:57:08;2.42;;;1.40;;
31043;SDS011;17710;52.520;13.352;2022-08-01T09:59:36;2.60;;;1.23;;
31043;SDS011;17710;52.520;13.352;2022-08-01T10:02:06;4.40;;;1.75;;
31043;SDS011;17710;52.520;13.352;2022-08-01T10:04:33;1.77;;;1.60;;
31043;SDS011;17710;52.520;13.352;2022-08-01T10:07:04;3.08;;;1.42;;
31043;SDS011;17710;52.520;13.352;2022-08-01T10:09:32;2.83;;;1.52;;
31043;SDS011;17710;52.520;13.352;2022-08-01T10:12:01;2.35;;;1.10;;
31043;SDS011;17710;52.520;13.352;2022-08-01T10:14:28;1.60;;;1.50;;
31043;SDS011;17710;52.520;13.352;2022-08-01T10:16:56;4.05;;;1.40;;
31043;SDS011;17710;52.520;13.352;2022-08-01T10:19:25;3.28;;;1.05;;
31043;SDS011;17710;52.520;13.352;2022-08-01T10:21:53;1.48;;;1.33;;
31043;SDS011;17710;52.520;13.352;2022-08-01T10:24:20;2.58;;;1.13;;
31043;SDS011;17710;52.520;13.352;2022-08-01T10:26:47;4.05;;;1.38;;
31043;SDS011;17710;52.520;13.352;2022-08-01T10:29:18;0.90;;;0.90;;
31043;SDS011;17710;52.520;13.352;2022-08-01T10:31:46;2.60;;;0.77;;
31043;SDS011;17710;52.520;13.352;2022-08-01T10:34:13;7.10;;;1.30;;
31043;SDS011;17710;52.520;13.352;2022-08-01T10:36:43;6.00;;;1.15;;
31043;SDS011;17710;52.520;13.352;2022-08-01T10:39:10;2.75;;;1.13;;
31043;SDS011;17710;52.520;13.352;2022-08-01T10:41:37;3.17;;;1.00;;
31043;SDS011;17710;52.520;13.352;2022-08-01T10:44:05;3.58;;;0.95;;
31043;SDS011;17710;52.520;13.352;2022-08-01T10:46:35;3.72;;;1.00;;
31043;SDS011;17710;52.520;13.352;2022-08-01T10:49:04;2.53;;;1.20;;
31043;SDS011;17710;52.520;13.352;2022-08-01T10:51:34;3.50;;;0.90;;
31043;SDS011;17710;52.520;13.352;2022-08-01T10:54:04;4.03;;;0.90;;
31043;SDS011;17710;52.520;13.352;2022-08-01T10:56:38;1.13;;;1.02;;
31043;SDS011;17710;52.520;13.352;2022-08-01T10:59:05;4.88;;;1.42;;
31043;SDS011;17710;52.520;13.352;2022-08-01T11:01:32;3.05;;;0.98;;
31043;SDS011;17710;52.520;13.352;2022-08-01T11:04:05;1.58;;;0.80;;
31043;SDS011;17710;52.520;13.352;2022-08-01T11:06:46;1.50;;;1.00;;
31043;SDS011;17710;52.520;13.352;2022-08-01T11:09:23;2.13;;;1.00;;
31043;SDS011;17710;52.520;13.352;2022-08-01T11:11:58;1.75;;;0.93;;
31043;SDS011;17710;52.520;13.352;2022-08-01T11:14:28;1.92;;;0.98;;
31043;SDS011;17710;52.520;13.352;2022-08-01T11:16:55;3.30;;;1.00;;
31043;SDS011;17710;52.520;13.352;2022-08-01T11:19:23;0.93;;;0.93;;
31043;SDS011;17710;52.520;13.352;2022-08-01T11:21:59;1.90;;;1.10;;
31043;SDS011;17710;52.520;13.352;2022-08-01T11:27:23;3.15;;;0.90;;
31043;SDS011;17710;52.520;13.352;2022-08-01T11:32:51;4.40;;;1.20;;
31043;SDS011;17710;52.520;13.352;2022-08-01T11:35:20;1.98;;;1.00;;
31043;SDS011;17710;52.520;13.352;2022-08-01T11:37:48;1.13;;;0.90;;
31043;SDS011;17710;52.520;13.352;2022-08-01T11:40:16;1.00;;;0.80;;
31043;SDS011;17710;52.520;13.352;2022-08-01T11:42:44;1.70;;;0.93;;
31043;SDS011;17710;52.520;13.352;2022-08-01T11:45:11;3.88;;;0.80;;
31043;SDS011;17710;52.520;13.352;2022-08-01T11:47:44;2.67;;;0.60;;
31043;SDS011;17710;52.520;13.352;2022-08-01T11:52:58;1.85;;;0.80;;
31043;SDS011;17710;52.520;13.352;2022-08-01T11:55:25;1.98;;;0.70;;
31043;SDS011;17710;52.520;13.352;2022-08-01T11:57:57;1.27;;;0.70;;
31043;SDS011;17710;52.520;13.352;2022-08-01T12:00:25;2.25;;;1.00;;
31043;SDS011;17710;52.520;13.352;2022-08-01T12:02:56;4.22;;;1.00;;
31043;SDS011;17710;52.520;13.352;2022-08-01T12:05:23;2.10;;;0.60;;
31043;SDS011;17710;52.520;13.352;2022-08-01T12:07:52;1.27;;;0.60;;
31043;SDS011;17710;52.520;13.352;2022-08-01T12:10:20;1.45;;;0.60;;
31043;SDS011;17710;52.520;13.352;2022-08-01T12:12:48;2.08;;;1.20;;
31043;SDS011;17710;52.520;13.352;2022-08-01T12:15:16;1.63;;;0.70;;
31043;SDS011;17710;52.520;13.352;2022-08-01T12:17:45;1.35;;;0.40;;
31043;SDS011;17710;52.520;13.352;2022-08-01T12:20:13;2.75;;;0.63;;
31043;SDS011;17710;52.520;13.352;2022-08-01T12:22:42;0.82;;;0.80;;
31043;SDS011;17710;52.520;13.352;2022-08-01T12:25:11;1.17;;;0.70;;
31043;SDS011;17710;52.520;13.352;2022-08-01T12:27:40;0.88;;;0.60;;
31043;SDS011;17710;52.520;13.352;2022-08-01T12:30:09;2.35;;;0.60;;
31043;SDS011;17710;52.520;13.352;2022-08-01T12:32:37;1.27;;;0.50;;
31043;SDS011;17710;52.520;13.352;2022-08-01T12:35:06;1.00;;;0.50;;
31043;SDS011;17710;52.520;13.352;2022-08-01T12:37:34;1.23;;;0.70;;
31043;SDS011;17710;52.520;13.352;2022-08-01T12:40:02;0.40;;;0.40;;
31043;SDS011;17710;52.520;13.352;2022-08-01T12:42:37;5.30;;;0.80;;
31043;SDS011;17710;52.520;13.352;2022-08-01T12:45:05;2.55;;;0.80;;
31043;SDS011;17710;52.520;13.352;2022-08-01T12:47:34;2.63;;;0.50;;
31043;SDS011;17710;52.520;13.352;2022-08-01T12:50:02;1.70;;;0.60;;
31043;SDS011;17710;52.520;13.352;2022-08-01T12:52:30;1.60;;;0.90;;
31043;SDS011;17710;52.520;13.352;2022-08-01T12:55:00;1.33;;;0.80;;
31043;SDS011;17710;52.520;13.352;2022-08-01T12:57:28;1.95;;;0.77;;
31043;SDS011;17710;52.520;13.352;2022-08-01T13:00:09;1.40;;;0.55;;
31043;SDS011;17710;52.520;13.352;2022-08-01T13:02:42;1.77;;;0.52;;
31043;SDS011;17710;52.520;13.352;2022-08-01T13:05:09;0.70;;;0.65;;
31043;SDS011;17710;52.520;13.352;2022-08-01T13:07:40;1.98;;;0.60;;
31043;SDS011;17710;52.520;13.352;2022-08-01T13:10:10;2.42;;;0.90;;
31043;SDS011;17710;52.520;13.352;2022-08-01T13:12:37;0.93;;;0.68;;
31043;SDS011;17710;52.520;13.352;2022-08-01T13:15:18;3.25;;;1.05;;
31043;SDS011;17710;52.520;13.352;2022-08-01T13:17:47;1.38;;;0.70;;
31043;SDS011;17710;52.520;13.352;2022-08-01T13:23:10;3.60;;;0.93;;
31043;SDS011;17710;52.520;13.352;2022-08-01T13:25:48;1.95;;;0.57;;
31043;SDS011;17710;52.520;13.352;2022-08-01T13:28:16;2.92;;;0.93;;
31043;SDS011;17710;52.520;13.352;2022-08-01T13:30:52;1.67;;;0.75;;
31043;SDS011;17710;52.520;13.352;2022-08-01T13:33:23;1.80;;;0.60;;
31043;SDS011;17710;52.520;13.352;2022-08-01T13:35:50;1.77;;;0.80;;
31043;SDS011;17710;52.520;13.352;2022-08-01T13:38:18;1.00;;;0.77;;
31043;SDS011;17710;52.520;13.352;2022-08-01T13:40:44;4.30;;;0.95;;
31043;SDS011;17710;52.520;13.352;2022-08-01T13:43:11;4.28;;;1.65;;
31043;SDS011;17710;52.520;13.352;2022-08-01T13:45:38;2.13;;;0.82;;
31043;SDS011;17710;52.520;13.352;2022-08-01T13:48:07;1.23;;;1.13;;
31043;SDS011;17710;52.520;13.352;2022-08-01T13:50:33;6.32;;;0.70;;
31043;SDS011;17710;52.520;13.352;2022-08-01T13:53:00;2.65;;;0.70;;
31043;SDS011;17710;52.520;13.352;2022-08-01T13:55:27;1.15;;;0.63;;
31043;SDS011;17710;52.520;13.352;2022-08-01T13:57:53;3.25;;;0.50;;
31043;SDS011;17710;52.520;13.352;2022-08-01T14:00:19;2.58;;;1.25;;
31043;SDS011;17710;52.520;13.352;2022-08-01T14:02:46;3.00;;;0.77;;
31043;SDS011;17710;52.520;13.352;2022-08-01T14:05:14;4.50;;;0.63;;
31043;SDS011;17710;52.520;13.352;2022-08-01T14:07:40;2.47;;;0.50;;
31043;SDS011;17710;52.520;13.352;2022-08-01T14:10:07;0.70;;;0.50;;
31043;SDS011;17710;52.520;13.352;2022-08-01T14:12:34;1.40;;;0.60;;
31043;SDS011;17710;52.520;13.352;2022-08-01T14:15:00;2.85;;;0.52;;
31043;SDS011;17710;52.520;13.352;2022-08-01T14:17:27;1.50;;;0.35;;
31043;SDS011;17710;52.520;13.352;2022-08-01T14:19:53;1.42;;;0.40;;
31043;SDS011;17710;52.520;13.352;2022-08-01T14:22:22;0.45;;;0.45;;
31043;SDS011;17710;52.520;13.352;2022-08-01T14:24:49;5.38;;;0.50;;
31043;SDS011;17710;52.520;13.352;2022-08-01T14:27:15;3.22;;;0.40;;
31043;SDS011;17710;52.520;13.352;2022-08-01T14:29:42;1.35;;;1.10;;
31043;SDS011;17710;52.520;13.352;2022-08-01T14:32:11;6.35;;;1.67;;
31043;SDS011;17710;52.520;13.352;2022-08-01T14:34:38;0.50;;;0.50;;
31043;SDS011;17710;52.520;13.352;2022-08-01T14:37:04;0.77;;;0.77;;
31043;SDS011;17710;52.520;13.352;2022-08-01T14:39:32;0.30;;;0.30;;
31043;SDS011;17710;52.520;13.352;2022-08-01T14:41:58;0.57;;;0.38;;
31043;SDS011;17710;52.520;13.352;2022-08-01T14:44:25;0.30;;;0.30;;
31043;SDS011;17710;52.520;13.352;2022-08-01T14:46:52;1.85;;;0.45;;
31043;SDS011;17710;52.520;13.352;2022-08-01T14:49:19;0.30;;;0.30;;
31043;SDS011;17710;52.520;13.352;2022-08-01T14:51:45;0.60;;;0.40;;